Tim Quigg — WDB6570 — position and weather

sailwx.info

Track history (hours):
 
Tides and Currents Weather Stations Pressure Air Temp Water Temp Dewpoint Dewpoint Depression Visibility Wind Speed Wind Dir Waves Ship Positions

Tim Quigg

Owner: Harley Marine Services, Inc, Seattle, WA. More information available from US FCC via Universal Licensing System and Coast Guard Vessel Documentation Center.

Last reported at 2016-Oct-01 04:33 UTC. Time now 2016-Oct-01 12:09 UTC.
Position N 33°44' W 118°17'.

Type: Tug. MMSI: 366926740.

Date/timePositionNaut miles runAvg speedWind from/ knotsBaromVisibWave heightAir tempDewpointWater temp
2016-Oct-01 04:33N 33°44' W 118°17'1 1.2
2016-Oct-01 03:33N 33°45' W 118°16'0 0.1
2016-Oct-01 00:33N 33°45' W 118°16'0 0.0
2016-Sep-30 22:33N 33°45' W 118°16'0 0.0
2016-Sep-30 20:33N 33°45' W 118°16'2 0.5
2016-Sep-30 17:33N 33°44' W 118°16'2 1.5
2016-Sep-30 16:33N 33°45' W 118°16'0 0.1
2016-Sep-30 14:33N 33°45' W 118°16'0 0.3
2016-Sep-30 13:33N 33°45' W 118°16'0 0.2
2016-Sep-30 10:33N 33°45' W 118°16'1 0.7
2016-Sep-30 08:33N 33°44' W 118°16'0 0.0
2016-Sep-30 06:34N 33°44' W 118°16'0 0.0
2016-Sep-30 03:33N 33°44' W 118°16'0 0.0
2016-Sep-30 02:33N 33°44' W 118°16'1 0.5
2016-Sep-29 23:34N 33°43' W 118°14'4 1.8
2016-Sep-29 21:33N 33°46' W 118°13'0 0.3
2016-Sep-29 20:33N 33°46' W 118°13'3 3.1
2016-Sep-29 19:33N 33°44' W 118°16'2 0.6
2016-Sep-29 16:33N 33°46' W 118°16'0 0.1
2016-Sep-29 15:34N 33°46' W 118°16'2 1.8
2016-Sep-29 14:33N 33°44' W 118°16'0 0.1
2016-Sep-29 13:33N 33°44' W 118°15'0 0.0
2016-Sep-29 08:33N 33°44' W 118°16'0 0.0
2016-Sep-29 07:34N 33°44' W 118°16'0 0.0
2016-Sep-28 21:33N 33°44' W 118°16'0 0.0
2016-Sep-28 19:33N 33°44' W 118°16'0 0.0
2016-Sep-28 16:33N 33°44' W 118°16'0 0.0
2016-Sep-28 15:07N 33°44' W 118°16'1 0.4
2016-Sep-28 12:34N 33°45' W 118°17'1 0.3
2016-Sep-28 08:33N 33°44' W 118°16'0 0.0
2016-Sep-28 03:09N 33°44' W 118°16'0 0.0
2016-Sep-28 02:31N 33°44' W 118°16'0 0.0
2016-Sep-28 01:33N 33°44' W 118°16'0 0.0
2016-Sep-27 23:33N 33°44' W 118°16'0 0.0
2016-Sep-26 08:32N 33°44' W 118°16'0 0.0
2016-Sep-26 02:33N 33°44' W 118°16'0 0.0
2016-Sep-26 01:33N 33°44' W 118°16'0 0.0
2016-Sep-26 00:33N 33°44' W 118°16'0 0.0
2016-Sep-25 17:30N 33°44' W 118°16'0 0.0
2016-Sep-25 16:33N 33°44' W 118°16'0 0.0
2016-Sep-25 15:33N 33°44' W 118°16'0 0.0
2016-Sep-25 14:33N 33°44' W 118°16'0 0.0
2016-Sep-25 12:32N 33°44' W 118°16'0 0.0
2016-Sep-25 11:33N 33°44' W 118°16'0 0.0
2016-Sep-25 10:34N 33°44' W 118°16'0 0.0
2016-Sep-25 09:33N 33°44' W 118°16'0 0.0
2016-Sep-25 07:33N 33°44' W 118°16'0 0.0
2016-Sep-25 04:34N 33°44' W 118°16'0 0.0
2016-Sep-25 00:33N 33°44' W 118°16'0 0.0
2016-Sep-24 22:33N 33°44' W 118°16'0 0.0
2016-Sep-24 21:33N 33°44' W 118°16'0 0.0
2016-Sep-24 19:33N 33°44' W 118°16'0 0.0
2016-Sep-24 18:33N 33°44' W 118°16'0 0.0
2016-Sep-24 17:33N 33°44' W 118°16'0 0.0
2016-Sep-24 16:33N 33°44' W 118°16'0 0.0
2016-Sep-24 14:33N 33°44' W 118°16'0 0.0
2016-Sep-24 12:33N 33°44' W 118°16'0 0.0
2016-Sep-24 10:33N 33°44' W 118°16'0 0.0
2016-Sep-24 09:33N 33°44' W 118°16'0 0.0
2016-Sep-24 03:33N 33°44' W 118°16'0 0.0
2016-Sep-24 02:32N 33°44' W 118°16'0 0.0
2016-Sep-24 01:33N 33°44' W 118°16'0 0.0
2016-Sep-24 00:33N 33°44' W 118°16'0 0.0
2016-Sep-22 12:33N 33°44' W 118°15'0 0.0
2016-Sep-22 04:32N 33°44' W 118°16'0 0.0
2016-Sep-22 03:34N 33°44' W 118°16'0 0.0
2016-Sep-22 00:31N 33°44' W 118°16'  
Track history (hours):
 
Tides and Currents Weather Stations Pressure Air Temp Water Temp Dewpoint Dewpoint Depression Visibility Wind Speed Wind Dir Waves Ship Positions

Tim Quigg

Owner: Harley Marine Services, Inc, Seattle, WA. More information available from US FCC via Universal Licensing System and Coast Guard Vessel Documentation Center.

Last reported at 2016-Oct-01 04:33 UTC. Time now 2016-Oct-01 12:09 UTC.
Position N 33°44' W 118°17'.

Type: Tug. MMSI: 366926740.

Date/timePositionNaut miles runAvg speedWind from/ knotsBaromVisibWave heightAir tempDewpointWater temp
2016-Oct-01 04:33N 33°44' W 118°17'1 1.2
2016-Oct-01 03:33N 33°45' W 118°16'0 0.1
2016-Oct-01 00:33N 33°45' W 118°16'0 0.0
2016-Sep-30 22:33N 33°45' W 118°16'0 0.0
2016-Sep-30 20:33N 33°45' W 118°16'2 0.5
2016-Sep-30 17:33N 33°44' W 118°16'2 1.5
2016-Sep-30 16:33N 33°45' W 118°16'0 0.1
2016-Sep-30 14:33N 33°45' W 118°16'0 0.3
2016-Sep-30 13:33N 33°45' W 118°16'0 0.2
2016-Sep-30 10:33N 33°45' W 118°16'1 0.7
2016-Sep-30 08:33N 33°44' W 118°16'0 0.0
2016-Sep-30 06:34N 33°44' W 118°16'0 0.0
2016-Sep-30 03:33N 33°44' W 118°16'0 0.0
2016-Sep-30 02:33N 33°44' W 118°16'1 0.5
2016-Sep-29 23:34N 33°43' W 118°14'4 1.8
2016-Sep-29 21:33N 33°46' W 118°13'0 0.3
2016-Sep-29 20:33N 33°46' W 118°13'3 3.1
2016-Sep-29 19:33N 33°44' W 118°16'2 0.6
2016-Sep-29 16:33N 33°46' W 118°16'0 0.1
2016-Sep-29 15:34N 33°46' W 118°16'2 1.8
2016-Sep-29 14:33N 33°44' W 118°16'0 0.1
2016-Sep-29 13:33N 33°44' W 118°15'0 0.0
2016-Sep-29 08:33N 33°44' W 118°16'0 0.0
2016-Sep-29 07:34N 33°44' W 118°16'0 0.0
2016-Sep-28 21:33N 33°44' W 118°16'0 0.0
2016-Sep-28 19:33N 33°44' W 118°16'0 0.0
2016-Sep-28 16:33N 33°44' W 118°16'0 0.0
2016-Sep-28 15:07N 33°44' W 118°16'1 0.4
2016-Sep-28 12:34N 33°45' W 118°17'1 0.3
2016-Sep-28 08:33N 33°44' W 118°16'0 0.0
2016-Sep-28 03:09N 33°44' W 118°16'0 0.0
2016-Sep-28 02:31N 33°44' W 118°16'0 0.0
2016-Sep-28 01:33N 33°44' W 118°16'0 0.0
2016-Sep-27 23:33N 33°44' W 118°16'0 0.0
2016-Sep-26 08:32N 33°44' W 118°16'0 0.0
2016-Sep-26 02:33N 33°44' W 118°16'0 0.0
2016-Sep-26 01:33N 33°44' W 118°16'0 0.0
2016-Sep-26 00:33N 33°44' W 118°16'0 0.0
2016-Sep-25 17:30N 33°44' W 118°16'0 0.0
2016-Sep-25 16:33N 33°44' W 118°16'0 0.0
2016-Sep-25 15:33N 33°44' W 118°16'0 0.0
2016-Sep-25 14:33N 33°44' W 118°16'0 0.0
2016-Sep-25 12:32N 33°44' W 118°16'0 0.0
2016-Sep-25 11:33N 33°44' W 118°16'0 0.0
2016-Sep-25 10:34N 33°44' W 118°16'0 0.0
2016-Sep-25 09:33N 33°44' W 118°16'0 0.0
2016-Sep-25 07:33N 33°44' W 118°16'0 0.0
2016-Sep-25 04:34N 33°44' W 118°16'0 0.0
2016-Sep-25 00:33N 33°44' W 118°16'0 0.0
2016-Sep-24 22:33N 33°44' W 118°16'0 0.0
2016-Sep-24 21:33N 33°44' W 118°16'0 0.0
2016-Sep-24 19:33N 33°44' W 118°16'0 0.0
2016-Sep-24 18:33N 33°44' W 118°16'0 0.0
2016-Sep-24 17:33N 33°44' W 118°16'0 0.0
2016-Sep-24 16:33N 33°44' W 118°16'0 0.0
2016-Sep-24 14:33N 33°44' W 118°16'0 0.0
2016-Sep-24 12:33N 33°44' W 118°16'0 0.0
2016-Sep-24 10:33N 33°44' W 118°16'0 0.0
2016-Sep-24 09:33N 33°44' W 118°16'0 0.0
2016-Sep-24 03:33N 33°44' W 118°16'0 0.0
2016-Sep-24 02:32N 33°44' W 118°16'0 0.0
2016-Sep-24 01:33N 33°44' W 118°16'0 0.0
2016-Sep-24 00:33N 33°44' W 118°16'0 0.0
2016-Sep-22 12:33N 33°44' W 118°15'0 0.0
2016-Sep-22 04:32N 33°44' W 118°16'0 0.0
2016-Sep-22 03:34N 33°44' W 118°16'0 0.0
2016-Sep-22 00:31N 33°44' W 118°16'  

Dump ship's entire track history